sensor_id;sensor_type;location;lat;lon;timestamp;temperature;humidity
25550;DHT22;13444;50.562;7.262;2023-12-07T00:00:50;2.30;99.90
25550;DHT22;13444;50.562;7.262;2023-12-07T00:03:15;2.30;99.90
25550;DHT22;13444;50.562;7.262;2023-12-07T00:05:41;2.30;99.90
25550;DHT22;13444;50.562;7.262;2023-12-07T00:08:10;2.30;99.90
25550;DHT22;13444;50.562;7.262;2023-12-07T00:10:36;2.30;99.90
25550;DHT22;13444;50.562;7.262;2023-12-07T00:13:02;2.30;99.90
25550;DHT22;13444;50.562;7.262;2023-12-07T00:15:27;2.30;99.90
25550;DHT22;13444;50.562;7.262;2023-12-07T00:17:53;2.30;99.90
25550;DHT22;13444;50.562;7.262;2023-12-07T00:20:18;2.30;99.90
25550;DHT22;13444;50.562;7.262;2023-12-07T00:23:04;2.30;99.90
25550;DHT22;13444;50.562;7.262;2023-12-07T00:25:49;2.30;99.90
25550;DHT22;13444;50.562;7.262;2023-12-07T00:28:35;2.30;99.90
25550;DHT22;13444;50.562;7.262;2023-12-07T00:31:20;2.30;99.90
25550;DHT22;13444;50.562;7.262;2023-12-07T00:34:06;2.30;99.90
25550;DHT22;13444;50.562;7.262;2023-12-07T00:36:52;2.30;99.90
25550;DHT22;13444;50.562;7.262;2023-12-07T00:39:37;2.30;99.90
25550;DHT22;13444;50.562;7.262;2023-12-07T00:42:23;2.20;99.90
25550;DHT22;13444;50.562;7.262;2023-12-07T00:44:48;2.20;99.90
25550;DHT22;13444;50.562;7.262;2023-12-07T00:47:14;2.20;99.90
25550;DHT22;13444;50.562;7.262;2023-12-07T00:49:39;2.30;99.90
25550;DHT22;13444;50.562;7.262;2023-12-07T00:52:08;2.30;99.90
25550;DHT22;13444;50.562;7.262;2023-12-07T00:54:34;2.20;99.90
25550;DHT22;13444;50.562;7.262;2023-12-07T00:56:59;2.20;99.90
25550;DHT22;13444;50.562;7.262;2023-12-07T00:59:25;2.20;99.90
25550;DHT22;13444;50.562;7.262;2023-12-07T01:01:50;2.20;99.90
25550;DHT22;13444;50.562;7.262;2023-12-07T01:04:16;2.20;99.90
25550;DHT22;13444;50.562;7.262;2023-12-07T01:06:43;2.20;99.90
25550;DHT22;13444;50.562;7.262;2023-12-07T01:09:08;2.20;99.90
25550;DHT22;13444;50.562;7.262;2023-12-07T01:11:38;2.20;99.90
25550;DHT22;13444;50.562;7.262;2023-12-07T01:14:05;2.20;99.90
25550;DHT22;13444;50.562;7.262;2023-12-07T01:16:31;2.30;99.90
25550;DHT22;13444;50.562;7.262;2023-12-07T01:18:56;2.30;99.90
25550;DHT22;13444;50.562;7.262;2023-12-07T01:21:23;2.30;99.90
25550;DHT22;13444;50.562;7.262;2023-12-07T01:23:49;2.20;99.90
25550;DHT22;13444;50.562;7.262;2023-12-07T01:26:14;2.30;99.90
25550;DHT22;13444;50.562;7.262;2023-12-07T01:28:40;2.30;99.90
25550;DHT22;13444;50.562;7.262;2023-12-07T01:31:05;2.20;99.90
25550;DHT22;13444;50.562;7.262;2023-12-07T01:33:31;2.20;99.90
25550;DHT22;13444;50.562;7.262;2023-12-07T01:35:56;2.10;99.90
25550;DHT22;13444;50.562;7.262;2023-12-07T01:38:22;2.10;99.90
25550;DHT22;13444;50.562;7.262;2023-12-07T01:40:48;2.10;99.90
25550;DHT22;13444;50.562;7.262;2023-12-07T01:43:14;2.10;99.90
25550;DHT22;13444;50.562;7.262;2023-12-07T01:45:40;2.10;99.90
25550;DHT22;13444;50.562;7.262;2023-12-07T01:48:06;2.10;99.90
25550;DHT22;13444;50.562;7.262;2023-12-07T01:50:32;2.10;99.90
25550;DHT22;13444;50.562;7.262;2023-12-07T01:53:02;2.10;99.90
25550;DHT22;13444;50.562;7.262;2023-12-07T01:55:30;2.10;99.90
25550;DHT22;13444;50.562;7.262;2023-12-07T01:57:56;2.00;99.90
25550;DHT22;13444;50.562;7.262;2023-12-07T02:00:22;2.00;99.90
25550;DHT22;13444;50.562;7.262;2023-12-07T02:02:48;2.00;99.90
25550;DHT22;13444;50.562;7.262;2023-12-07T02:05:15;2.00;99.90
25550;DHT22;13444;50.562;7.262;2023-12-07T02:07:41;2.10;99.90
25550;DHT22;13444;50.562;7.262;2023-12-07T02:10:07;2.10;99.90
25550;DHT22;13444;50.562;7.262;2023-12-07T02:12:33;2.10;99.90
25550;DHT22;13444;50.562;7.262;2023-12-07T02:15:03;2.10;99.90
25550;DHT22;13444;50.562;7.262;2023-12-07T02:17:35;2.20;99.90
25550;DHT22;13444;50.562;7.262;2023-12-07T02:20:18;2.20;99.90
25550;DHT22;13444;50.562;7.262;2023-12-07T02:22:52;2.20;99.90
25550;DHT22;13444;50.562;7.262;2023-12-07T02:25:19;2.20;99.90
25550;DHT22;13444;50.562;7.262;2023-12-07T02:27:48;2.30;99.90
25550;DHT22;13444;50.562;7.262;2023-12-07T02:30:15;2.30;99.90
25550;DHT22;13444;50.562;7.262;2023-12-07T02:32:42;2.30;99.90
25550;DHT22;13444;50.562;7.262;2023-12-07T02:35:09;2.30;99.90
25550;DHT22;13444;50.562;7.262;2023-12-07T02:37:39;2.30;99.90
25550;DHT22;13444;50.562;7.262;2023-12-07T02:40:07;2.30;99.90
25550;DHT22;13444;50.562;7.262;2023-12-07T02:42:40;2.30;99.90
25550;DHT22;13444;50.562;7.262;2023-12-07T02:45:07;2.20;99.90
25550;DHT22;13444;50.562;7.262;2023-12-07T02:47:34;2.20;99.90
25550;DHT22;13444;50.562;7.262;2023-12-07T02:50:02;2.10;99.90
25550;DHT22;13444;50.562;7.262;2023-12-07T02:52:27;2.10;99.90
25550;DHT22;13444;50.562;7.262;2023-12-07T02:54:54;2.00;99.90
25550;DHT22;13444;50.562;7.262;2023-12-07T02:57:19;2.00;99.90
25550;DHT22;13444;50.562;7.262;2023-12-07T02:59:45;1.90;99.90
25550;DHT22;13444;50.562;7.262;2023-12-07T03:02:10;1.90;99.90
25550;DHT22;13444;50.562;7.262;2023-12-07T03:04:36;1.90;99.90
25550;DHT22;13444;50.562;7.262;2023-12-07T03:07:02;1.80;99.90
25550;DHT22;13444;50.562;7.262;2023-12-07T03:09:28;1.90;99.90
25550;DHT22;13444;50.562;7.262;2023-12-07T03:11:54;1.80;99.90
25550;DHT22;13444;50.562;7.262;2023-12-07T03:14:19;1.80;99.90
25550;DHT22;13444;50.562;7.262;2023-12-07T03:16:45;1.80;99.90
25550;DHT22;13444;50.562;7.262;2023-12-07T03:19:10;1.80;99.90
25550;DHT22;13444;50.562;7.262;2023-12-07T03:21:39;1.80;99.90
25550;DHT22;13444;50.562;7.262;2023-12-07T03:24:06;1.80;99.90
25550;DHT22;13444;50.562;7.262;2023-12-07T03:26:32;1.80;99.90
25550;DHT22;13444;50.562;7.262;2023-12-07T03:28:57;1.80;99.90
25550;DHT22;13444;50.562;7.262;2023-12-07T03:31:23;1.80;99.90
25550;DHT22;13444;50.562;7.262;2023-12-07T03:33:48;1.80;99.90
25550;DHT22;13444;50.562;7.262;2023-12-07T03:36:14;1.80;99.90
25550;DHT22;13444;50.562;7.262;2023-12-07T03:38:39;1.80;99.90
25550;DHT22;13444;50.562;7.262;2023-12-07T03:41:05;1.80;99.90
25550;DHT22;13444;50.562;7.262;2023-12-07T03:43:30;1.90;99.90
25550;DHT22;13444;50.562;7.262;2023-12-07T03:45:56;1.90;99.90
25550;DHT22;13444;50.562;7.262;2023-12-07T03:48:21;1.90;99.90
25550;DHT22;13444;50.562;7.262;2023-12-07T03:50:47;1.90;99.90
25550;DHT22;13444;50.562;7.262;2023-12-07T03:53:12;1.90;99.90
25550;DHT22;13444;50.562;7.262;2023-12-07T03:55:38;1.90;99.90
25550;DHT22;13444;50.562;7.262;2023-12-07T03:58:07;1.90;99.90
25550;DHT22;13444;50.562;7.262;2023-12-07T04:00:32;1.90;99.90
25550;DHT22;13444;50.562;7.262;2023-12-07T04:02:58;1.90;99.90
25550;DHT22;13444;50.562;7.262;2023-12-07T04:05:24;1.80;99.90
25550;DHT22;13444;50.562;7.262;2023-12-07T04:07:49;1.80;99.90
25550;DHT22;13444;50.562;7.262;2023-12-07T04:10:15;1.80;99.90
25550;DHT22;13444;50.562;7.262;2023-12-07T04:12:41;1.80;99.90
25550;DHT22;13444;50.562;7.262;2023-12-07T04:15:07;1.70;99.90
25550;DHT22;13444;50.562;7.262;2023-12-07T04:17:32;1.70;99.90
25550;DHT22;13444;50.562;7.262;2023-12-07T04:19:58;1.60;99.90
25550;DHT22;13444;50.562;7.262;2023-12-07T04:22:23;1.60;99.90
25550;DHT22;13444;50.562;7.262;2023-12-07T04:24:49;1.60;99.90
25550;DHT22;13444;50.562;7.262;2023-12-07T04:27:15;1.60;99.90
25550;DHT22;13444;50.562;7.262;2023-12-07T04:29:41;1.60;99.90
25550;DHT22;13444;50.562;7.262;2023-12-07T04:32:07;1.60;99.90
25550;DHT22;13444;50.562;7.262;2023-12-07T04:34:33;1.60;99.90
25550;DHT22;13444;50.562;7.262;2023-12-07T04:36:58;1.60;99.90
25550;DHT22;13444;50.562;7.262;2023-12-07T04:39:24;1.60;99.90
25550;DHT22;13444;50.562;7.262;2023-12-07T04:41:49;1.60;99.90
25550;DHT22;13444;50.562;7.262;2023-12-07T04:44:15;1.60;99.90
25550;DHT22;13444;50.562;7.262;2023-12-07T04:46:41;1.50;99.90
25550;DHT22;13444;50.562;7.262;2023-12-07T04:49:07;1.50;99.90
25550;DHT22;13444;50.562;7.262;2023-12-07T04:51:33;1.50;99.90
25550;DHT22;13444;50.562;7.262;2023-12-07T04:53:58;1.50;99.90
25550;DHT22;13444;50.562;7.262;2023-12-07T04:56:24;1.50;99.90
25550;DHT22;13444;50.562;7.262;2023-12-07T04:58:49;1.40;99.90
25550;DHT22;13444;50.562;7.262;2023-12-07T05:01:15;1.40;99.90
25550;DHT22;13444;50.562;7.262;2023-12-07T05:03:40;1.40;99.90
25550;DHT22;13444;50.562;7.262;2023-12-07T05:06:06;1.40;99.90
25550;DHT22;13444;50.562;7.262;2023-12-07T05:08:33;1.40;99.90
25550;DHT22;13444;50.562;7.262;2023-12-07T05:10:58;1.30;99.90
25550;DHT22;13444;50.562;7.262;2023-12-07T05:13:24;1.30;99.90
25550;DHT22;13444;50.562;7.262;2023-12-07T05:15:49;1.30;99.90
25550;DHT22;13444;50.562;7.262;2023-12-07T05:18:15;1.20;99.90
25550;DHT22;13444;50.562;7.262;2023-12-07T05:20:40;1.20;99.90
25550;DHT22;13444;50.562;7.262;2023-12-07T05:23:06;1.10;99.90
25550;DHT22;13444;50.562;7.262;2023-12-07T05:25:32;1.20;99.90
25550;DHT22;13444;50.562;7.262;2023-12-07T05:27:58;1.20;99.90
25550;DHT22;13444;50.562;7.262;2023-12-07T05:30:23;1.20;99.90
25550;DHT22;13444;50.562;7.262;2023-12-07T05:32:49;1.20;99.90
25550;DHT22;13444;50.562;7.262;2023-12-07T05:35:16;1.20;99.90
25550;DHT22;13444;50.562;7.262;2023-12-07T05:37:41;1.20;99.90
25550;DHT22;13444;50.562;7.262;2023-12-07T05:40:07;1.20;99.90
25550;DHT22;13444;50.562;7.262;2023-12-07T05:42:34;1.20;99.90
25550;DHT22;13444;50.562;7.262;2023-12-07T05:45:00;1.20;99.90
25550;DHT22;13444;50.562;7.262;2023-12-07T05:47:26;1.20;99.90
25550;DHT22;13444;50.562;7.262;2023-12-07T05:49:52;1.20;99.90
25550;DHT22;13444;50.562;7.262;2023-12-07T05:52:17;1.10;99.90
25550;DHT22;13444;50.562;7.262;2023-12-07T05:54:43;1.20;99.90
25550;DHT22;13444;50.562;7.262;2023-12-07T05:57:12;1.10;99.90
25550;DHT22;13444;50.562;7.262;2023-12-07T05:59:38;1.10;99.90
25550;DHT22;13444;50.562;7.262;2023-12-07T06:02:04;1.10;99.90
25550;DHT22;13444;50.562;7.262;2023-12-07T06:04:30;1.10;99.90
25550;DHT22;13444;50.562;7.262;2023-12-07T06:06:56;1.10;99.90
25550;DHT22;13444;50.562;7.262;2023-12-07T06:09:21;1.00;99.90
25550;DHT22;13444;50.562;7.262;2023-12-07T06:11:48;1.00;99.90
25550;DHT22;13444;50.562;7.262;2023-12-07T06:14:13;1.00;99.90
25550;DHT22;13444;50.562;7.262;2023-12-07T06:16:39;0.90;99.90
25550;DHT22;13444;50.562;7.262;2023-12-07T06:19:04;0.90;99.90
25550;DHT22;13444;50.562;7.262;2023-12-07T06:21:30;0.90;99.90
25550;DHT22;13444;50.562;7.262;2023-12-07T06:23:56;0.90;99.90
25550;DHT22;13444;50.562;7.262;2023-12-07T06:26:22;0.80;99.90
25550;DHT22;13444;50.562;7.262;2023-12-07T06:28:48;0.80;99.90
25550;DHT22;13444;50.562;7.262;2023-12-07T06:31:13;0.80;99.90
25550;DHT22;13444;50.562;7.262;2023-12-07T06:33:45;0.70;99.90
25550;DHT22;13444;50.562;7.262;2023-12-07T06:36:11;0.70;99.90
25550;DHT22;13444;50.562;7.262;2023-12-07T06:38:42;0.60;99.90
25550;DHT22;13444;50.562;7.262;2023-12-07T06:41:08;0.60;99.90
25550;DHT22;13444;50.562;7.262;2023-12-07T06:43:33;0.60;99.90
25550;DHT22;13444;50.562;7.262;2023-12-07T06:45:59;0.60;99.90
25550;DHT22;13444;50.562;7.262;2023-12-07T06:48:25;0.60;99.90
25550;DHT22;13444;50.562;7.262;2023-12-07T06:50:50;0.50;99.90
25550;DHT22;13444;50.562;7.262;2023-12-07T06:53:16;0.50;99.90
25550;DHT22;13444;50.562;7.262;2023-12-07T06:55:43;0.40;99.90
25550;DHT22;13444;50.562;7.262;2023-12-07T06:58:09;0.40;99.90
25550;DHT22;13444;50.562;7.262;2023-12-07T07:00:35;0.50;99.90
25550;DHT22;13444;50.562;7.262;2023-12-07T07:03:01;0.50;99.90
25550;DHT22;13444;50.562;7.262;2023-12-07T07:05:27;0.50;99.90
25550;DHT22;13444;50.562;7.262;2023-12-07T07:07:53;0.60;99.90
25550;DHT22;13444;50.562;7.262;2023-12-07T07:10:18;0.60;99.90
25550;DHT22;13444;50.562;7.262;2023-12-07T07:12:44;0.60;99.90
25550;DHT22;13444;50.562;7.262;2023-12-07T07:15:12;0.50;99.90
25550;DHT22;13444;50.562;7.262;2023-12-07T07:17:37;0.60;99.90
25550;DHT22;13444;50.562;7.262;2023-12-07T07:20:03;0.60;99.90
25550;DHT22;13444;50.562;7.262;2023-12-07T07:22:29;0.70;99.90
25550;DHT22;13444;50.562;7.262;2023-12-07T07:24:55;0.60;99.90
25550;DHT22;13444;50.562;7.262;2023-12-07T07:27:20;0.60;99.90
25550;DHT22;13444;50.562;7.262;2023-12-07T07:29:46;0.60;99.90
25550;DHT22;13444;50.562;7.262;2023-12-07T07:32:14;0.60;99.90
25550;DHT22;13444;50.562;7.262;2023-12-07T07:34:39;0.60;99.90
25550;DHT22;13444;50.562;7.262;2023-12-07T07:37:05;0.60;99.90
25550;DHT22;13444;50.562;7.262;2023-12-07T07:39:32;0.50;99.90
25550;DHT22;13444;50.562;7.262;2023-12-07T07:41:58;0.50;99.90
25550;DHT22;13444;50.562;7.262;2023-12-07T07:44:23;0.50;99.90
25550;DHT22;13444;50.562;7.262;2023-12-07T07:46:49;0.60;99.90
25550;DHT22;13444;50.562;7.262;2023-12-07T07:49:15;0.60;99.90
25550;DHT22;13444;50.562;7.262;2023-12-07T07:51:40;0.60;99.90
25550;DHT22;13444;50.562;7.262;2023-12-07T07:54:06;0.60;99.90
25550;DHT22;13444;50.562;7.262;2023-12-07T07:56:31;0.60;99.90
25550;DHT22;13444;50.562;7.262;2023-12-07T07:58:57;0.60;99.90
25550;DHT22;13444;50.562;7.262;2023-12-07T08:01:25;0.60;99.90
25550;DHT22;13444;50.562;7.262;2023-12-07T08:03:51;0.70;99.90
25550;DHT22;13444;50.562;7.262;2023-12-07T08:06:17;0.70;99.90
25550;DHT22;13444;50.562;7.262;2023-12-07T08:08:42;0.70;99.90
25550;DHT22;13444;50.562;7.262;2023-12-07T08:11:08;0.80;99.90
25550;DHT22;13444;50.562;7.262;2023-12-07T08:13:33;0.80;99.90
25550;DHT22;13444;50.562;7.262;2023-12-07T08:15:59;0.90;99.90
25550;DHT22;13444;50.562;7.262;2023-12-07T08:18:24;1.00;99.90
25550;DHT22;13444;50.562;7.262;2023-12-07T08:20:51;1.10;99.90
25550;DHT22;13444;50.562;7.262;2023-12-07T08:23:16;1.20;99.90
25550;DHT22;13444;50.562;7.262;2023-12-07T08:25:42;1.20;99.90
25550;DHT22;13444;50.562;7.262;2023-12-07T08:28:09;1.20;99.90
25550;DHT22;13444;50.562;7.262;2023-12-07T08:30:35;1.30;99.90
25550;DHT22;13444;50.562;7.262;2023-12-07T08:33:00;1.30;99.90
25550;DHT22;13444;50.562;7.262;2023-12-07T08:35:26;1.30;99.90
25550;DHT22;13444;50.562;7.262;2023-12-07T08:37:52;1.30;99.90
25550;DHT22;13444;50.562;7.262;2023-12-07T08:40:17;1.30;99.90
25550;DHT22;13444;50.562;7.262;2023-12-07T08:42:46;1.40;99.90
25550;DHT22;13444;50.562;7.262;2023-12-07T08:45:13;1.30;99.90
25550;DHT22;13444;50.562;7.262;2023-12-07T08:47:41;1.30;99.90
25550;DHT22;13444;50.562;7.262;2023-12-07T08:50:07;1.40;99.90
25550;DHT22;13444;50.562;7.262;2023-12-07T08:52:33;1.40;99.90
25550;DHT22;13444;50.562;7.262;2023-12-07T08:54:59;1.50;99.90
25550;DHT22;13444;50.562;7.262;2023-12-07T08:57:24;1.60;99.90
25550;DHT22;13444;50.562;7.262;2023-12-07T08:59:50;1.60;99.90
25550;DHT22;13444;50.562;7.262;2023-12-07T09:02:16;1.60;99.90
25550;DHT22;13444;50.562;7.262;2023-12-07T09:04:41;1.60;99.90
25550;DHT22;13444;50.562;7.262;2023-12-07T09:07:07;1.60;99.90
25550;DHT22;13444;50.562;7.262;2023-12-07T09:09:34;1.70;99.90
25550;DHT22;13444;50.562;7.262;2023-12-07T09:12:00;1.70;99.90
25550;DHT22;13444;50.562;7.262;2023-12-07T09:14:26;1.80;99.90
25550;DHT22;13444;50.562;7.262;2023-12-07T09:16:52;1.80;99.90
25550;DHT22;13444;50.562;7.262;2023-12-07T09:19:17;1.80;99.90
25550;DHT22;13444;50.562;7.262;2023-12-07T09:21:43;1.80;99.90
25550;DHT22;13444;50.562;7.262;2023-12-07T09:24:09;1.90;99.90
25550;DHT22;13444;50.562;7.262;2023-12-07T09:26:34;1.90;99.90
25550;DHT22;13444;50.562;7.262;2023-12-07T09:29:00;1.90;99.90
25550;DHT22;13444;50.562;7.262;2023-12-07T09:31:26;1.90;99.90
25550;DHT22;13444;50.562;7.262;2023-12-07T09:33:52;2.00;99.90
25550;DHT22;13444;50.562;7.262;2023-12-07T09:36:19;2.00;99.90
25550;DHT22;13444;50.562;7.262;2023-12-07T09:38:46;2.00;99.90
25550;DHT22;13444;50.562;7.262;2023-12-07T09:41:12;2.10;99.90
25550;DHT22;13444;50.562;7.262;2023-12-07T09:43:37;2.10;99.90
25550;DHT22;13444;50.562;7.262;2023-12-07T09:46:03;2.10;99.90
25550;DHT22;13444;50.562;7.262;2023-12-07T09:48:29;2.20;99.90
25550;DHT22;13444;50.562;7.262;2023-12-07T09:50:56;2.20;99.90
25550;DHT22;13444;50.562;7.262;2023-12-07T09:53:22;2.30;99.90
25550;DHT22;13444;50.562;7.262;2023-12-07T09:55:47;2.30;99.90
25550;DHT22;13444;50.562;7.262;2023-12-07T09:58:14;2.40;99.90
25550;DHT22;13444;50.562;7.262;2023-12-07T10:00:39;2.40;99.90
25550;DHT22;13444;50.562;7.262;2023-12-07T10:03:05;2.50;99.90
25550;DHT22;13444;50.562;7.262;2023-12-07T10:05:33;2.50;99.90
25550;DHT22;13444;50.562;7.262;2023-12-07T10:07:59;2.60;99.90
25550;DHT22;13444;50.562;7.262;2023-12-07T10:10:25;2.60;99.90
25550;DHT22;13444;50.562;7.262;2023-12-07T10:12:53;2.60;99.90
25550;DHT22;13444;50.562;7.262;2023-12-07T10:15:20;2.80;99.90
25550;DHT22;13444;50.562;7.262;2023-12-07T10:17:54;3.00;99.90
25550;DHT22;13444;50.562;7.262;2023-12-07T10:20:22;3.10;99.90
25550;DHT22;13444;50.562;7.262;2023-12-07T10:23:06;3.10;99.90
25550;DHT22;13444;50.562;7.262;2023-12-07T10:25:43;3.30;99.90
25550;DHT22;13444;50.562;7.262;2023-12-07T10:28:09;3.50;99.90
25550;DHT22;13444;50.562;7.262;2023-12-07T10:30:40;3.60;99.90
25550;DHT22;13444;50.562;7.262;2023-12-07T10:33:07;3.50;99.90
25550;DHT22;13444;50.562;7.262;2023-12-07T10:35:33;3.60;99.90
25550;DHT22;13444;50.562;7.262;2023-12-07T10:37:58;3.60;99.90
25550;DHT22;13444;50.562;7.262;2023-12-07T10:40:25;3.60;99.90
25550;DHT22;13444;50.562;7.262;2023-12-07T10:42:55;3.50;99.90
25550;DHT22;13444;50.562;7.262;2023-12-07T10:45:22;3.60;99.90
25550;DHT22;13444;50.562;7.262;2023-12-07T10:47:50;3.80;99.90
25550;DHT22;13444;50.562;7.262;2023-12-07T10:50:21;3.60;99.90
25550;DHT22;13444;50.562;7.262;2023-12-07T10:52:52;3.60;99.90
25550;DHT22;13444;50.562;7.262;2023-12-07T10:55:29;3.50;99.90
25550;DHT22;13444;50.562;7.262;2023-12-07T10:57:59;3.50;99.90
25550;DHT22;13444;50.562;7.262;2023-12-07T11:00:26;3.40;99.90
25550;DHT22;13444;50.562;7.262;2023-12-07T11:02:53;3.40;99.90
25550;DHT22;13444;50.562;7.262;2023-12-07T11:05:19;3.40;99.90
25550;DHT22;13444;50.562;7.262;2023-12-07T11:08:02;3.30;99.90
25550;DHT22;13444;50.562;7.262;2023-12-07T11:10:36;3.30;99.90
25550;DHT22;13444;50.562;7.262;2023-12-07T11:13:20;3.30;99.90
25550;DHT22;13444;50.562;7.262;2023-12-07T11:15:48;3.20;99.90
25550;DHT22;13444;50.562;7.262;2023-12-07T11:18:13;3.30;99.90
25550;DHT22;13444;50.562;7.262;2023-12-07T11:20:44;3.30;99.90
25550;DHT22;13444;50.562;7.262;2023-12-07T11:23:11;3.40;99.90
25550;DHT22;13444;50.562;7.262;2023-12-07T11:25:37;3.50;99.90
25550;DHT22;13444;50.562;7.262;2023-12-07T11:28:04;3.40;99.90
25550;DHT22;13444;50.562;7.262;2023-12-07T11:30:32;3.40;99.90
25550;DHT22;13444;50.562;7.262;2023-12-07T11:33:00;3.30;99.90
25550;DHT22;13444;50.562;7.262;2023-12-07T11:35:25;3.30;99.90
25550;DHT22;13444;50.562;7.262;2023-12-07T11:38:05;3.30;99.90
25550;DHT22;13444;50.562;7.262;2023-12-07T11:40:36;3.40;99.90
25550;DHT22;13444;50.562;7.262;2023-12-07T11:43:02;3.50;99.90
25550;DHT22;13444;50.562;7.262;2023-12-07T11:48:07;3.50;99.90
25550;DHT22;13444;50.562;7.262;2023-12-07T11:50:33;3.50;99.90
25550;DHT22;13444;50.562;7.262;2023-12-07T11:52:58;3.50;99.90
25550;DHT22;13444;50.562;7.262;2023-12-07T11:55:24;3.40;99.90
25550;DHT22;13444;50.562;7.262;2023-12-07T11:57:50;3.50;99.90
25550;DHT22;13444;50.562;7.262;2023-12-07T12:00:15;3.40;99.90
25550;DHT22;13444;50.562;7.262;2023-12-07T12:02:42;3.30;99.90
25550;DHT22;13444;50.562;7.262;2023-12-07T12:05:09;3.30;99.90
25550;DHT22;13444;50.562;7.262;2023-12-07T12:07:35;3.30;99.90
25550;DHT22;13444;50.562;7.262;2023-12-07T12:10:03;3.30;99.90
25550;DHT22;13444;50.562;7.262;2023-12-07T12:12:29;3.30;99.90
25550;DHT22;13444;50.562;7.262;2023-12-07T12:14:57;3.30;99.90
25550;DHT22;13444;50.562;7.262;2023-12-07T12:17:23;3.30;99.90
25550;DHT22;13444;50.562;7.262;2023-12-07T12:19:49;3.30;99.90
25550;DHT22;13444;50.562;7.262;2023-12-07T12:22:20;3.30;99.90
25550;DHT22;13444;50.562;7.262;2023-12-07T12:24:46;3.30;99.90
25550;DHT22;13444;50.562;7.262;2023-12-07T12:27:13;3.40;99.90
25550;DHT22;13444;50.562;7.262;2023-12-07T12:29:39;3.30;99.90
25550;DHT22;13444;50.562;7.262;2023-12-07T12:32:05;3.30;99.90
25550;DHT22;13444;50.562;7.262;2023-12-07T12:34:33;3.40;99.90
25550;DHT22;13444;50.562;7.262;2023-12-07T12:36:58;3.40;99.90
25550;DHT22;13444;50.562;7.262;2023-12-07T12:39:28;3.30;99.90
25550;DHT22;13444;50.562;7.262;2023-12-07T12:41:56;3.30;99.90
25550;DHT22;13444;50.562;7.262;2023-12-07T12:44:21;3.30;99.90
25550;DHT22;13444;50.562;7.262;2023-12-07T12:46:47;3.30;99.90
25550;DHT22;13444;50.562;7.262;2023-12-07T12:49:12;3.40;99.90
25550;DHT22;13444;50.562;7.262;2023-12-07T12:51:38;3.40;99.90
25550;DHT22;13444;50.562;7.262;2023-12-07T12:54:04;3.40;99.90
25550;DHT22;13444;50.562;7.262;2023-12-07T12:56:30;3.40;99.90
25550;DHT22;13444;50.562;7.262;2023-12-07T12:58:56;3.40;99.90
25550;DHT22;13444;50.562;7.262;2023-12-07T13:01:22;3.50;99.90
25550;DHT22;13444;50.562;7.262;2023-12-07T13:03:48;3.50;99.90
25550;DHT22;13444;50.562;7.262;2023-12-07T13:06:17;3.50;99.90
25550;DHT22;13444;50.562;7.262;2023-12-07T13:08:44;3.60;99.90
25550;DHT22;13444;50.562;7.262;2023-12-07T13:11:15;3.60;99.90
25550;DHT22;13444;50.562;7.262;2023-12-07T13:13:40;3.50;99.90
25550;DHT22;13444;50.562;7.262;2023-12-07T13:16:06;3.50;99.90
25550;DHT22;13444;50.562;7.262;2023-12-07T13:18:32;3.60;99.90
25550;DHT22;13444;50.562;7.262;2023-12-07T13:20:57;3.60;99.90
25550;DHT22;13444;50.562;7.262;2023-12-07T13:23:25;3.60;99.90
25550;DHT22;13444;50.562;7.262;2023-12-07T13:25:50;3.60;99.90
25550;DHT22;13444;50.562;7.262;2023-12-07T13:28:16;3.60;99.90
25550;DHT22;13444;50.562;7.262;2023-12-07T13:31:00;3.60;99.90
25550;DHT22;13444;50.562;7.262;2023-12-07T13:33:44;3.60;99.90
25550;DHT22;13444;50.562;7.262;2023-12-07T13:36:10;3.70;99.90
25550;DHT22;13444;50.562;7.262;2023-12-07T13:38:35;3.80;99.90
25550;DHT22;13444;50.562;7.262;2023-12-07T13:41:01;3.80;99.90
25550;DHT22;13444;50.562;7.262;2023-12-07T13:43:27;3.80;99.90
25550;DHT22;13444;50.562;7.262;2023-12-07T13:45:55;3.90;99.90
25550;DHT22;13444;50.562;7.262;2023-12-07T13:48:20;3.90;99.90
25550;DHT22;13444;50.562;7.262;2023-12-07T13:50:46;3.90;99.90
25550;DHT22;13444;50.562;7.262;2023-12-07T13:53:11;3.90;99.90
25550;DHT22;13444;50.562;7.262;2023-12-07T13:55:38;3.90;99.90
25550;DHT22;13444;50.562;7.262;2023-12-07T13:58:05;3.80;99.90
25550;DHT22;13444;50.562;7.262;2023-12-07T14:00:32;3.90;99.90
25550;DHT22;13444;50.562;7.262;2023-12-07T14:02:58;3.80;99.90
25550;DHT22;13444;50.562;7.262;2023-12-07T14:05:23;3.80;99.90
25550;DHT22;13444;50.562;7.262;2023-12-07T14:07:50;3.80;99.90
25550;DHT22;13444;50.562;7.262;2023-12-07T14:10:16;3.80;99.90
25550;DHT22;13444;50.562;7.262;2023-12-07T14:12:42;3.90;99.90
25550;DHT22;13444;50.562;7.262;2023-12-07T14:15:08;3.90;99.90
25550;DHT22;13444;50.562;7.262;2023-12-07T14:17:34;3.90;99.90
25550;DHT22;13444;50.562;7.262;2023-12-07T14:20:07;3.90;99.90
25550;DHT22;13444;50.562;7.262;2023-12-07T14:22:34;3.90;99.90
25550;DHT22;13444;50.562;7.262;2023-12-07T14:25:00;3.90;99.90
25550;DHT22;13444;50.562;7.262;2023-12-07T14:27:26;3.90;99.90
25550;DHT22;13444;50.562;7.262;2023-12-07T14:29:51;3.80;99.90
25550;DHT22;13444;50.562;7.262;2023-12-07T14:32:17;3.90;99.90
25550;DHT22;13444;50.562;7.262;2023-12-07T14:34:43;3.80;99.90
25550;DHT22;13444;50.562;7.262;2023-12-07T14:37:09;3.70;99.90
25550;DHT22;13444;50.562;7.262;2023-12-07T14:39:36;3.70;99.90
25550;DHT22;13444;50.562;7.262;2023-12-07T14:42:01;3.70;99.90
25550;DHT22;13444;50.562;7.262;2023-12-07T14:44:28;3.80;99.90
25550;DHT22;13444;50.562;7.262;2023-12-07T14:46:54;3.80;99.90
25550;DHT22;13444;50.562;7.262;2023-12-07T14:49:20;3.80;99.90
25550;DHT22;13444;50.562;7.262;2023-12-07T14:51:47;3.70;99.90
25550;DHT22;13444;50.562;7.262;2023-12-07T14:54:13;3.70;99.90
25550;DHT22;13444;50.562;7.262;2023-12-07T14:56:39;3.60;99.90
25550;DHT22;13444;50.562;7.262;2023-12-07T14:59:05;3.50;99.90
25550;DHT22;13444;50.562;7.262;2023-12-07T15:01:31;3.40;99.90
25550;DHT22;13444;50.562;7.262;2023-12-07T15:03:57;3.30;99.90
25550;DHT22;13444;50.562;7.262;2023-12-07T15:06:23;3.30;99.90
25550;DHT22;13444;50.562;7.262;2023-12-07T15:08:50;3.20;99.90
25550;DHT22;13444;50.562;7.262;2023-12-07T15:11:15;3.20;99.90
25550;DHT22;13444;50.562;7.262;2023-12-07T15:13:41;3.20;99.90
25550;DHT22;13444;50.562;7.262;2023-12-07T15:16:07;3.10;99.90
25550;DHT22;13444;50.562;7.262;2023-12-07T15:18:33;3.20;99.90
25550;DHT22;13444;50.562;7.262;2023-12-07T15:21:02;3.10;99.90
25550;DHT22;13444;50.562;7.262;2023-12-07T15:23:27;3.10;99.90
25550;DHT22;13444;50.562;7.262;2023-12-07T15:25:53;3.00;99.90
25550;DHT22;13444;50.562;7.262;2023-12-07T15:28:22;3.00;99.90
25550;DHT22;13444;50.562;7.262;2023-12-07T15:30:48;2.90;99.90
25550;DHT22;13444;50.562;7.262;2023-12-07T15:33:14;2.90;99.90
25550;DHT22;13444;50.562;7.262;2023-12-07T15:35:40;2.90;99.90
25550;DHT22;13444;50.562;7.262;2023-12-07T15:38:06;2.90;99.90
25550;DHT22;13444;50.562;7.262;2023-12-07T15:40:31;3.00;99.90
25550;DHT22;13444;50.562;7.262;2023-12-07T15:42:57;3.00;99.90
25550;DHT22;13444;50.562;7.262;2023-12-07T15:45:23;2.90;99.90